Terminal Aerodrome Forecast
Issued by NWS Jackson, MS

Home | Current Version | Previous Version | Text Only | Print | Product List | Glossary On
Versions: 1 2 3 4 5 6 7 8 9 10 11 12 13 14
000
FTUS44 KJAN 262357
TAFGWO
TAF
KGWO 262357Z 2700/2724 16007KT P6SM SCT050 BKN100
     FM270800 16008KT 6SM SHRA VCTS OVC050CB
     FM271000 VRB05G15KT 3SM SHRA BR VCTS BKN012CB OVC020
     FM271300 11008KT 5SM -SHRA BR BKN008 BKN030
     FM271800 14010KT P6SM SCT008 BKN015=

USA.gov is the U.S. government's official web portal to all federal, state and local government web resources and services.